createdAt,value
2022-10-16T00:00:23.245Z,100426.78
2022-10-16T00:02:52.632Z,100425.00
2022-10-16T00:05:22.061Z,100422.44
2022-10-16T00:07:54.032Z,100421.50
2022-10-16T00:10:23.474Z,100433.53
2022-10-16T00:12:52.985Z,100426.59
2022-10-16T00:15:22.578Z,100435.16
2022-10-16T00:17:51.993Z,100430.00
2022-10-16T00:20:21.432Z,100444.59
2022-10-16T00:22:50.849Z,100435.16
2022-10-16T00:25:22.853Z,100435.22
2022-10-16T00:27:52.221Z,100448.25
2022-10-16T00:30:21.606Z,100448.25
2022-10-16T00:32:50.990Z,100455.19
2022-10-16T00:35:20.446Z,100460.25
2022-10-16T00:37:49.830Z,100472.38
2022-10-16T00:40:24.667Z,100475.84
2022-10-16T00:42:54.039Z,100478.59
2022-10-16T00:45:23.414Z,100498.38
2022-10-16T00:47:53.286Z,100499.25
2022-10-16T00:50:26.674Z,100511.59
2022-10-16T00:52:56.624Z,100511.69
2022-10-16T00:55:30.887Z,100522.03
2022-10-16T00:58:01.566Z,100523.78
2022-10-16T01:00:31.121Z,100538.47
2022-10-16T01:03:02.849Z,100532.28
2022-10-16T01:05:37.412Z,100539.13
2022-10-16T01:08:12.402Z,100555.38
2022-10-16T01:10:48.016Z,100564.03
2022-10-16T01:13:22.157Z,100559.81
2022-10-16T01:15:57.241Z,100565.78
2022-10-16T01:18:32.914Z,100569.09
2022-10-16T01:21:06.304Z,100566.47
2022-10-16T01:23:45.034Z,100566.34
2022-10-16T01:26:37.134Z,100574.84
2022-10-16T01:29:13.273Z,100573.00
2022-10-16T01:31:44.456Z,100574.63
2022-10-16T01:34:17.322Z,100574.63
2022-10-16T01:36:51.037Z,100567.69
2022-10-16T01:39:22.737Z,100574.44
2022-10-16T01:41:57.602Z,100569.28
2022-10-16T01:44:32.331Z,100570.03
2022-10-16T01:47:02.250Z,100575.28
2022-10-16T01:49:36.301Z,100574.13
2022-10-16T01:52:11.756Z,100570.56
2022-10-16T01:54:43.431Z,100569.72
2022-10-16T01:57:14.085Z,100572.25
2022-10-16T01:59:47.494Z,100578.16
2022-10-16T02:02:19.126Z,100575.47
2022-10-16T02:04:50.487Z,100573.66
2022-10-16T02:07:19.993Z,100567.63
2022-10-16T02:09:49.434Z,100572.69
2022-10-16T02:12:23.153Z,100573.50
2022-10-16T02:14:55.268Z,100575.09
2022-10-16T02:17:25.070Z,100568.25
2022-10-16T02:19:56.263Z,100575.00
2022-10-16T02:22:29.210Z,100574.00
2022-10-16T02:25:01.564Z,100573.09
2022-10-16T02:27:35.287Z,100573.78
2022-10-16T02:30:11.369Z,100576.28
2022-10-16T02:32:42.765Z,100569.38
2022-10-16T02:35:12.426Z,100569.38
2022-10-16T02:37:42.755Z,100579.72
2022-10-16T02:40:13.240Z,100572.78
2022-10-16T02:42:43.748Z,100572.56
2022-10-16T02:45:15.956Z,100572.44
2022-10-16T02:47:45.330Z,100573.22
2022-10-16T02:50:14.755Z,100575.81
2022-10-16T02:52:44.149Z,100573.16
2022-10-16T02:55:13.537Z,100570.47
2022-10-16T02:57:42.982Z,100570.34
2022-10-16T03:00:18.631Z,100566.84
2022-10-16T03:02:48.397Z,100565.38
2022-10-16T03:05:18.259Z,100568.56
2022-10-16T03:07:47.666Z,100564.34
2022-10-16T03:10:17.158Z,100571.91
2022-10-16T03:12:46.559Z,100568.28
2022-10-16T03:15:18.554Z,100562.19
2022-10-16T03:17:48.077Z,100556.91
2022-10-16T03:20:17.628Z,100556.84
2022-10-16T03:22:47.021Z,100550.69
2022-10-16T03:25:16.621Z,100547.97
2022-10-16T03:27:46.040Z,100545.31
2022-10-16T03:30:18.322Z,100557.16
2022-10-16T03:32:47.877Z,100551.16
2022-10-16T03:35:17.436Z,100551.25
2022-10-16T03:37:46.818Z,100553.00
2022-10-16T03:40:16.235Z,100547.72
2022-10-16T03:42:46.321Z,100548.63
2022-10-16T03:45:18.325Z,100542.41
2022-10-16T03:47:48.502Z,100550.25
2022-10-16T03:50:18.125Z,100549.25
2022-10-16T03:52:47.498Z,100557.28
2022-10-16T03:55:17.169Z,100550.38
2022-10-16T03:57:46.559Z,100545.09
2022-10-16T04:00:19.050Z,100558.94
2022-10-16T04:02:48.462Z,100548.63
2022-10-16T04:05:18.327Z,100558.06
2022-10-16T04:07:47.718Z,100558.88
2022-10-16T04:10:17.256Z,100568.09
2022-10-16T04:12:46.650Z,100582.75
2022-10-16T04:15:18.822Z,100577.03
2022-10-16T04:17:48.201Z,100582.34
2022-10-16T04:20:17.773Z,100576.28
2022-10-16T04:22:47.174Z,100578.06
2022-10-16T04:25:16.541Z,100593.53
2022-10-16T04:27:46.301Z,100590.09
2022-10-16T04:30:18.557Z,100587.59
2022-10-16T04:32:51.795Z,100578.78
2022-10-16T04:35:21.687Z,100580.41
2022-10-16T04:37:51.508Z,100583.13
2022-10-16T04:40:21.092Z,100588.13
2022-10-16T04:42:50.478Z,100592.44
2022-10-16T04:45:22.425Z,100594.97
2022-10-16T04:47:51.790Z,100603.59
2022-10-16T04:50:21.189Z,100603.41
2022-10-16T04:52:50.546Z,100610.22
2022-10-16T04:55:19.970Z,100599.00
2022-10-16T04:57:49.406Z,100609.06
2022-10-16T05:00:19.069Z,100604.91
2022-10-16T05:02:51.058Z,100596.44
2022-10-16T05:05:20.637Z,100600.56
2022-10-16T05:07:50.594Z,100597.25
2022-10-16T05:10:20.101Z,100594.50
2022-10-16T05:12:49.898Z,100596.22
2022-10-16T05:15:19.445Z,100608.47
2022-10-16T05:17:51.393Z,100596.41
2022-10-16T05:20:20.794Z,100601.56
2022-10-16T05:22:50.190Z,100590.41
2022-10-16T05:25:19.941Z,100595.56
2022-10-16T05:27:51.191Z,100591.47
2022-10-16T05:30:21.486Z,100593.09
2022-10-16T05:32:54.385Z,100591.56
2022-10-16T05:35:24.695Z,100592.44
2022-10-16T05:37:54.073Z,100594.31
2022-10-16T05:40:23.934Z,100597.78
2022-10-16T05:42:53.326Z,100611.38
2022-10-16T05:45:22.683Z,100601.06
2022-10-16T05:47:54.658Z,100597.69
2022-10-16T05:50:24.064Z,100596.09
2022-10-16T05:52:53.433Z,100591.09
2022-10-16T05:55:22.855Z,100579.84
2022-10-16T05:57:52.241Z,100597.09
2022-10-16T06:00:21.616Z,100589.50
2022-10-16T06:02:50.990Z,100599.75
2022-10-16T06:05:22.962Z,100597.09
2022-10-16T06:07:52.358Z,100588.59
2022-10-16T06:10:21.724Z,100587.97
2022-10-16T06:12:51.120Z,100586.22
2022-10-16T06:15:20.504Z,100590.72
2022-10-16T06:17:49.873Z,100591.63
2022-10-16T06:20:19.258Z,100593.34
2022-10-16T06:22:51.236Z,100593.50
2022-10-16T06:25:20.593Z,100599.56
2022-10-16T06:27:49.951Z,100606.66
2022-10-16T06:30:19.350Z,100596.41
2022-10-16T06:32:48.781Z,100604.22
2022-10-16T06:35:18.184Z,100599.13
2022-10-16T06:37:47.561Z,100613.31
2022-10-16T06:40:19.602Z,100620.94
2022-10-16T06:42:49.017Z,100614.13
2022-10-16T06:45:18.438Z,100624.56
2022-10-16T06:47:47.845Z,100625.53
2022-10-16T06:50:17.409Z,100633.34
2022-10-16T06:52:46.785Z,100644.06
2022-10-16T06:55:18.977Z,100644.44
2022-10-16T06:57:50.677Z,100653.34
2022-10-16T07:00:20.270Z,100664.16
2022-10-16T07:02:49.688Z,100669.53
2022-10-16T07:05:19.081Z,100668.16
2022-10-16T07:07:48.452Z,100678.84
2022-10-16T07:10:20.473Z,100686.78
2022-10-16T07:12:49.855Z,100678.47
2022-10-16T07:15:19.373Z,100686.28
2022-10-16T07:17:48.729Z,100695.78
2022-10-16T07:20:18.124Z,100705.25
2022-10-16T07:22:47.550Z,100698.41
2022-10-16T07:25:19.690Z,100714.88
2022-10-16T07:27:49.082Z,100701.94
2022-10-16T07:30:18.546Z,100714.06
2022-10-16T07:32:47.962Z,100719.19
2022-10-16T07:35:17.602Z,100727.06
2022-10-16T07:37:48.489Z,100739.16
2022-10-16T07:40:20.518Z,100739.25
2022-10-16T07:42:49.928Z,100738.63
2022-10-16T07:45:19.312Z,100741.31
2022-10-16T07:47:48.669Z,100732.00
2022-10-16T07:50:18.303Z,100742.56
2022-10-16T07:52:47.661Z,100740.03
2022-10-16T07:55:17.104Z,100755.50
2022-10-16T07:57:49.106Z,100751.25
2022-10-16T08:00:18.726Z,100765.72
2022-10-16T08:02:48.146Z,100766.63
2022-10-16T08:05:17.848Z,100757.88
2022-10-16T08:07:52.182Z,100761.25
2022-10-16T08:10:22.946Z,100765.53
2022-10-16T08:12:55.021Z,100773.41
2022-10-16T08:15:24.870Z,100762.94
2022-10-16T08:18:02.133Z,100770.84
2022-10-16T08:20:32.809Z,100765.78
2022-10-16T08:23:02.844Z,100768.31
2022-10-16T08:25:32.270Z,100760.75
2022-10-16T08:28:04.214Z,100768.00
2022-10-16T08:30:33.580Z,100773.31
2022-10-16T08:33:03.052Z,100773.25
2022-10-16T08:35:32.466Z,100767.50
2022-10-16T08:38:01.891Z,100769.97
2022-10-16T08:40:34.366Z,100776.59
2022-10-16T08:43:20.165Z,100782.63
2022-10-16T08:46:02.482Z,100773.06
2022-10-16T08:48:36.994Z,100770.59
2022-10-16T08:51:07.049Z,100780.38
2022-10-16T08:53:42.746Z,100774.09
2022-10-16T08:56:12.149Z,100783.63
2022-10-16T08:58:44.159Z,100784.91
2022-10-16T09:01:16.636Z,100802.72
2022-10-16T09:04:10.288Z,100808.09
2022-10-16T09:06:46.631Z,100823.00
2022-10-16T09:09:30.733Z,100818.81
2022-10-16T09:12:03.490Z,100823.41
2022-10-16T09:14:55.010Z,100825.22
2022-10-16T09:17:43.019Z,100837.41
2022-10-16T09:20:29.307Z,100841.94
2022-10-16T09:23:11.887Z,100852.59
2022-10-16T09:25:42.882Z,100865.28
2022-10-16T09:28:12.836Z,100870.34
2022-10-16T09:30:44.953Z,100867.75
2022-10-16T09:33:15.994Z,100873.06
2022-10-16T09:35:47.110Z,100873.97
2022-10-16T09:38:29.338Z,100878.47
2022-10-16T09:41:03.193Z,100887.31
2022-10-16T09:43:38.042Z,100879.19
2022-10-16T09:46:11.531Z,100875.91
2022-10-16T09:48:43.354Z,100895.28
2022-10-16T09:51:21.848Z,100904.09
2022-10-16T09:53:54.678Z,100903.25
2022-10-16T09:56:29.097Z,100917.50
2022-10-16T09:58:59.656Z,100918.56
2022-10-16T10:01:34.571Z,100935.22
2022-10-16T10:04:04.574Z,100955.81
2022-10-16T10:06:38.847Z,100960.06
2022-10-16T10:09:10.425Z,100946.34
2022-10-16T10:11:41.441Z,100952.56
2022-10-16T10:14:37.330Z,100963.00
2022-10-16T10:17:17.352Z,100952.00
2022-10-16T10:19:50.728Z,100947.91
2022-10-16T10:22:21.809Z,100958.72
2022-10-16T10:25:03.921Z,100953.84
2022-10-16T10:27:42.222Z,100967.41
2022-10-16T10:30:18.516Z,100969.66
2022-10-16T10:32:55.986Z,100973.91
2022-10-16T10:35:28.625Z,100977.50
2022-10-16T10:38:07.760Z,100980.63
2022-10-16T10:40:47.877Z,100993.56
2022-10-16T10:43:26.622Z,100980.66
2022-10-16T10:45:58.861Z,100990.44
2022-10-16T10:48:47.140Z,100997.09
2022-10-16T10:51:23.457Z,100993.41
2022-10-16T10:53:56.629Z,101001.72
2022-10-16T10:56:45.338Z,100995.91
2022-10-16T10:59:36.419Z,100998.88
2022-10-16T11:02:09.996Z,100998.34
2022-10-16T11:05:07.077Z,101000.69
2022-10-16T11:07:38.706Z,101010.69
2022-10-16T11:10:16.129Z,101019.00
2022-10-16T11:12:47.922Z,101022.06
2022-10-16T11:15:20.473Z,101029.38
2022-10-16T11:17:53.869Z,101022.19
2022-10-16T11:20:28.415Z,101028.88
2022-10-16T11:23:00.542Z,101035.66
2022-10-16T11:25:31.582Z,101050.44
2022-10-16T11:28:05.731Z,101044.00
2022-10-16T11:30:44.621Z,101061.22
2022-10-16T11:33:32.530Z,101076.84
2022-10-16T11:36:10.398Z,101083.50
2022-10-16T11:38:45.335Z,101076.19
2022-10-16T11:41:22.129Z,101073.44
2022-10-16T11:44:00.060Z,101076.03
2022-10-16T11:46:29.952Z,101069.19
2022-10-16T11:49:04.912Z,101076.63
2022-10-16T11:51:40.793Z,101082.19
2022-10-16T11:54:22.480Z,101096.00
2022-10-16T11:56:53.509Z,101094.06
2022-10-16T11:59:27.998Z,101102.31
2022-10-16T12:02:00.731Z,101099.66
2022-10-16T12:04:35.134Z,101109.59
2022-10-16T12:07:10.937Z,101112.72
2022-10-16T12:09:42.281Z,101112.06
2022-10-16T12:12:29.312Z,101135.94
2022-10-16T12:15:17.821Z,101141.09
2022-10-16T12:17:52.019Z,101137.31
2022-10-16T12:20:31.677Z,101150.66
2022-10-16T12:23:05.703Z,101165.84
2022-10-16T12:25:37.024Z,101163.78
2022-10-16T12:28:08.813Z,101195.06
2022-10-16T12:30:39.344Z,101194.09
2022-10-16T12:33:10.709Z,101188.66
2022-10-16T12:35:48.022Z,101190.75
2022-10-16T12:38:23.102Z,101209.88
2022-10-16T12:41:02.019Z,101212.44
2022-10-16T12:43:40.233Z,101236.47
2022-10-16T12:46:26.212Z,101243.09
2022-10-16T12:49:06.586Z,101251.81
2022-10-16T12:51:39.200Z,101259.81
2022-10-16T12:54:17.158Z,101257.59
2022-10-16T12:56:56.932Z,101281.16
2022-10-16T12:59:34.962Z,101286.75
2022-10-16T13:02:21.926Z,101310.19
2022-10-16T13:05:03.558Z,101345.69
2022-10-16T13:07:48.722Z,101395.34
2022-10-16T13:10:28.408Z,101452.84
2022-10-16T13:13:17.649Z,101514.13
2022-10-16T13:15:57.832Z,101547.19
2022-10-16T13:18:31.954Z,101571.53
2022-10-16T13:21:11.194Z,101583.88
2022-10-16T13:23:44.183Z,101589.75
2022-10-16T13:26:27.089Z,101605.31
2022-10-16T13:28:56.683Z,101597.22
2022-10-16T13:31:27.846Z,101592.66
2022-10-16T13:34:00.283Z,101598.22
2022-10-16T13:36:31.445Z,101580.38
2022-10-16T13:39:18.067Z,101601.25
2022-10-16T13:41:50.909Z,101608.28
2022-10-16T13:44:23.306Z,101604.97
2022-10-16T13:47:02.236Z,101608.84
2022-10-16T13:49:31.649Z,101602.31
2022-10-16T13:52:02.433Z,101606.03
2022-10-16T13:54:32.425Z,101611.00
2022-10-16T13:57:26.196Z,101609.28
2022-10-16T13:59:57.503Z,101607.75
2022-10-16T14:02:30.571Z,101614.50
2022-10-16T14:05:01.156Z,101616.81
2022-10-16T14:07:32.597Z,101612.88
2022-10-16T14:10:06.313Z,101616.13
2022-10-16T14:12:38.785Z,101614.34
2022-10-16T14:15:19.369Z,101624.19
2022-10-16T14:17:49.689Z,101639.00
2022-10-16T14:20:19.853Z,101636.06
2022-10-16T14:22:49.520Z,101642.06
2022-10-16T14:25:30.140Z,101634.63
2022-10-16T14:28:19.677Z,101646.97
2022-10-16T14:30:57.123Z,101651.06
2022-10-16T14:33:29.051Z,101656.78
2022-10-16T14:36:07.414Z,101659.94
2022-10-16T14:38:37.364Z,101670.66
2022-10-16T14:41:07.742Z,101668.13
2022-10-16T14:43:40.863Z,101669.28
2022-10-16T14:46:16.714Z,101681.47
2022-10-16T14:48:46.747Z,101667.59
2022-10-16T14:51:17.661Z,101670.88
2022-10-16T14:53:47.219Z,101670.00
2022-10-16T14:56:20.388Z,101676.78
2022-10-16T14:58:53.993Z,101674.81
2022-10-16T15:01:23.807Z,101678.13
2022-10-16T15:03:53.698Z,101678.63
2022-10-16T15:06:23.159Z,101687.22
2022-10-16T15:08:52.857Z,101694.72
2022-10-16T15:11:22.789Z,101699.41
2022-10-16T15:13:54.745Z,101699.81
2022-10-16T15:16:24.124Z,101696.75
2022-10-16T15:18:54.074Z,101694.47
2022-10-16T15:21:27.150Z,101690.13
2022-10-16T15:23:57.541Z,101683.19
2022-10-16T15:26:27.219Z,101681.91
2022-10-16T15:28:59.283Z,101679.03
2022-10-16T15:31:28.882Z,101680.63
2022-10-16T15:34:04.762Z,101681.34
2022-10-16T15:36:37.664Z,101669.88
2022-10-16T15:39:07.178Z,101665.41
2022-10-16T15:41:36.576Z,101664.22
2022-10-16T15:44:08.611Z,101656.97
2022-10-16T15:46:38.361Z,101656.09
2022-10-16T15:49:07.971Z,101645.25
2022-10-16T15:51:37.380Z,101631.13
2022-10-16T15:54:06.892Z,101611.00
2022-10-16T15:56:37.964Z,101597.00
2022-10-16T15:59:10.125Z,101587.13
2022-10-16T16:01:39.921Z,101566.22
2022-10-16T16:04:15.585Z,101553.59
2022-10-16T16:06:55.035Z,101522.97
2022-10-16T16:09:24.399Z,101514.09
2022-10-16T16:11:53.796Z,101498.22
2022-10-16T16:14:27.117Z,101480.91
2022-10-16T16:16:56.914Z,101469.38
2022-10-16T16:19:26.615Z,101465.69
2022-10-16T16:21:56.076Z,101475.97
2022-10-16T16:24:25.496Z,101473.97
2022-10-16T16:26:54.881Z,101472.06
2022-10-16T16:29:26.890Z,101477.09
2022-10-16T16:31:58.288Z,101477.94
2022-10-16T16:34:28.352Z,101482.84
2022-10-16T16:36:57.740Z,101490.44
2022-10-16T16:39:27.847Z,101492.09
2022-10-16T16:41:59.387Z,101491.00
2022-10-16T16:44:31.348Z,101494.19
2022-10-16T16:47:00.711Z,101500.78
2022-10-16T16:49:30.072Z,101495.44
2022-10-16T16:51:59.487Z,101495.44
2022-10-16T16:54:29.015Z,101503.09
2022-10-16T16:56:58.422Z,101508.06
2022-10-16T16:59:27.821Z,101511.00
2022-10-16T17:01:59.771Z,101514.84
2022-10-16T17:04:29.434Z,101507.16
2022-10-16T17:06:59.090Z,101503.69
2022-10-16T17:09:28.584Z,101505.78
2022-10-16T17:11:58.042Z,101514.00
2022-10-16T17:14:27.406Z,101508.69
2022-10-16T17:16:59.600Z,101514.50
2022-10-16T17:19:29.008Z,101510.06
2022-10-16T17:21:58.440Z,101519.66
2022-10-16T17:24:27.892Z,101516.91
2022-10-16T17:26:58.032Z,101518.28
2022-10-16T17:29:27.442Z,101525.03
2022-10-16T17:31:59.803Z,101517.94
2022-10-16T17:34:29.300Z,101516.91
2022-10-16T17:36:58.802Z,101531.22
2022-10-16T17:39:28.233Z,101531.81
2022-10-16T17:41:57.618Z,101541.09
2022-10-16T17:44:27.029Z,101545.38
2022-10-16T17:46:59.002Z,101540.84
2022-10-16T17:49:28.417Z,101558.03
2022-10-16T17:51:59.027Z,101565.66
2022-10-16T17:54:28.383Z,101568.09
2022-10-16T17:56:57.797Z,101575.72
2022-10-16T17:59:28.194Z,101580.59
2022-10-16T18:02:00.269Z,101576.16
2022-10-16T18:04:29.759Z,101578.81
2022-10-16T18:07:00.466Z,101582.06
2022-10-16T18:09:29.985Z,101582.72
2022-10-16T18:12:02.265Z,101574.03
2022-10-16T18:14:32.927Z,101577.03
2022-10-16T18:17:04.966Z,101579.09
2022-10-16T18:19:34.380Z,101576.25
2022-10-16T18:22:03.785Z,101573.00
2022-10-16T18:24:34.615Z,101574.94
2022-10-16T18:27:04.020Z,101575.69
2022-10-16T18:29:33.479Z,101581.72
2022-10-16T18:32:05.473Z,101582.00
2022-10-16T18:34:37.567Z,101600.84
2022-10-16T18:37:07.003Z,101601.81
2022-10-16T18:39:36.423Z,101596.50
2022-10-16T18:42:05.989Z,101594.81
2022-10-16T18:44:35.567Z,101598.19
2022-10-16T18:47:07.611Z,101607.44
2022-10-16T18:49:37.035Z,101605.41
2022-10-16T18:52:06.606Z,101607.66
2022-10-16T18:54:37.556Z,101603.97
2022-10-16T18:57:07.129Z,101599.47
2022-10-16T18:59:36.549Z,101600.91
2022-10-16T19:02:08.580Z,101597.44
2022-10-16T19:04:38.592Z,101597.28
2022-10-16T19:07:08.029Z,101587.91
2022-10-16T19:09:37.595Z,101601.31
2022-10-16T19:12:08.236Z,101602.47
2022-10-16T19:14:38.039Z,101602.06
2022-10-16T19:17:10.035Z,101588.50
2022-10-16T19:19:40.354Z,101584.13
2022-10-16T19:22:28.200Z,101578.44
2022-10-16T19:24:57.973Z,101579.25
2022-10-16T19:27:27.440Z,101590.69
2022-10-16T19:29:56.833Z,101595.69
2022-10-16T19:32:29.178Z,101600.50
2022-10-16T19:34:58.851Z,101606.31
2022-10-16T19:37:28.427Z,101603.50
2022-10-16T19:39:57.790Z,101596.66
2022-10-16T19:42:27.440Z,101605.84
2022-10-16T19:44:56.998Z,101607.44
2022-10-16T19:47:28.985Z,101616.25
2022-10-16T19:49:58.418Z,101610.22
2022-10-16T19:52:29.918Z,101610.22
2022-10-16T19:55:00.040Z,101615.84
2022-10-16T19:57:29.773Z,101609.41
2022-10-16T19:59:59.187Z,101597.22
2022-10-16T20:02:31.193Z,101607.00
2022-10-16T20:05:00.592Z,101607.13
2022-10-16T20:07:32.578Z,101596.19
2022-10-16T20:10:04.141Z,101588.75
2022-10-16T20:12:33.546Z,101588.75
2022-10-16T20:15:03.872Z,101587.13
2022-10-16T20:17:35.848Z,101584.16
2022-10-16T20:20:05.250Z,101592.72
2022-10-16T20:22:34.627Z,101593.66
2022-10-16T20:25:07.166Z,101605.44
2022-10-16T20:27:39.427Z,101597.22
2022-10-16T20:30:10.124Z,101588.50
2022-10-16T20:32:42.346Z,101585.25
2022-10-16T20:35:12.403Z,101594.44
2022-10-16T20:37:44.705Z,101597.34
2022-10-16T20:40:15.456Z,101593.25
2022-10-16T20:42:44.849Z,101593.88
2022-10-16T20:45:14.240Z,101598.88
2022-10-16T20:47:46.198Z,101594.09
2022-10-16T20:50:16.364Z,101580.97
2022-10-16T20:52:45.820Z,101570.25
2022-10-16T20:55:16.097Z,101574.13
2022-10-16T20:57:45.523Z,101588.56
2022-10-16T21:00:16.305Z,101578.53
2022-10-16T21:02:48.302Z,101579.47
2022-10-16T21:05:17.883Z,101576.59
2022-10-16T21:07:47.307Z,101576.41
2022-10-16T21:10:16.717Z,101568.16
2022-10-16T21:12:46.122Z,101574.41
2022-10-16T21:15:15.986Z,101572.56
2022-10-16T21:17:48.026Z,101581.72
2022-10-16T21:20:17.571Z,101575.97
2022-10-16T21:22:46.976Z,101591.47
2022-10-16T21:25:16.394Z,101595.69
2022-10-16T21:27:46.021Z,101594.06
2022-10-16T21:30:15.537Z,101597.22
2022-10-16T21:32:44.927Z,101597.25
2022-10-16T21:35:17.838Z,101600.78
2022-10-16T21:37:51.229Z,101577.66
2022-10-16T21:40:20.606Z,101576.19
2022-10-16T21:42:49.996Z,101587.16
2022-10-16T21:45:19.380Z,101595.16
2022-10-16T21:47:49.969Z,101587.41
2022-10-16T21:50:22.058Z,101586.13
2022-10-16T21:52:51.442Z,101578.75
2022-10-16T21:55:20.828Z,101585.78
2022-10-16T21:57:50.242Z,101583.81
2022-10-16T22:00:19.846Z,101579.72
2022-10-16T22:02:49.223Z,101582.25
2022-10-16T22:05:18.666Z,101580.06
2022-10-16T22:07:50.641Z,101577.47
2022-10-16T22:10:20.178Z,101581.63
2022-10-16T22:12:49.586Z,101582.72
2022-10-16T22:15:19.077Z,101592.22
2022-10-16T22:17:48.480Z,101583.69
2022-10-16T22:20:17.886Z,101578.66
2022-10-16T22:22:49.865Z,101577.09
2022-10-16T22:25:19.341Z,101579.00
2022-10-16T22:27:48.702Z,101581.09
2022-10-16T22:30:18.190Z,101576.03
2022-10-16T22:32:47.559Z,101575.00
2022-10-16T22:35:17.054Z,101574.19
2022-10-16T22:37:46.473Z,101562.56
2022-10-16T22:40:18.711Z,101548.22
2022-10-16T22:45:38.658Z,101550.84
2022-10-16T22:48:08.771Z,101538.88
2022-10-16T22:50:38.164Z,101536.75
2022-10-16T22:53:07.753Z,101548.03
2022-10-16T22:55:39.728Z,101552.06
2022-10-16T22:58:09.090Z,101559.78
2022-10-16T23:00:38.630Z,101568.00
2022-10-16T23:03:08.221Z,101566.84
2022-10-16T23:05:40.886Z,101566.22
2022-10-16T23:08:11.071Z,101555.16
2022-10-16T23:10:44.833Z,101550.94
2022-10-16T23:13:14.912Z,101538.94
2022-10-16T23:15:44.954Z,101530.16
2022-10-16T23:18:14.760Z,101520.50
2022-10-16T23:20:44.409Z,101523.28
2022-10-16T23:23:14.006Z,101522.06
2022-10-16T23:25:50.063Z,101518.84
2022-10-16T23:28:19.460Z,101519.66
2022-10-16T23:30:48.841Z,101515.56
2022-10-16T23:33:18.264Z,101511.44
2022-10-16T23:35:47.714Z,101493.19
2022-10-16T23:38:17.099Z,101497.53
2022-10-16T23:40:46.534Z,101486.81
2022-10-16T23:43:18.504Z,101473.69
2022-10-16T23:45:47.870Z,101465.78
2022-10-16T23:48:17.317Z,101447.88
2022-10-16T23:50:46.789Z,101437.78
2022-10-16T23:53:17.075Z,101424.75
2022-10-16T23:55:46.543Z,101410.84
2022-10-16T23:58:18.765Z,101400.06
